Time;durP1;ratioP1;P1;durP2;ratioP2;P2;SDS_P1;SDS_P2;PMS_P1;PMS_P2;Temp;Humidity;BMP_temperature;BMP_pressure;BME280_temperature;BME280_humidity;BME280_pressure;Samples;Min_cycle;Max_cycle;Signal;HPM_P1;HPM_P2
2020/12/19 00:00:49;;;;;;;0.60;0.50;;;6.20;99.90;;;6.67;100.00;-20863.69;5016524;28;20972;-72
2020/12/19 00:03:16;;;;;;;0.67;0.53;;;6.20;99.90;;;6.74;100.00;-20865.78;5016843;28;20453;-72
2020/12/19 00:05:43;;;;;;;0.60;0.50;;;6.30;99.90;;;6.69;100.00;-20864.38;5016405;28;20477;-71
2020/12/19 00:08:10;;;;;;;1.20;1.10;;;6.20;99.90;;;6.78;100.00;-20866.75;5012501;28;21018;-72
2020/12/19 00:10:37;;;;;;;0.80;0.80;;;6.30;99.90;;;6.87;100.00;-20869.09;5014770;28;20456;-71
2020/12/19 00:13:04;;;;;;;0.70;0.60;;;6.40;99.90;;;6.83;100.00;-20868.00;5016284;28;20485;-72
2020/12/19 00:15:31;;;;;;;0.60;0.57;;;6.40;99.90;;;6.91;100.00;-20870.22;5016128;28;20429;-71
2020/12/19 00:17:58;;;;;;;0.60;0.50;;;6.50;99.90;;;6.93;100.00;-20870.91;5015938;28;20441;-71
2020/12/19 00:20:25;;;;;;;0.60;0.50;;;6.50;99.90;;;6.89;100.00;-20869.81;5016154;28;20429;-71
2020/12/19 00:22:52;;;;;;;0.60;0.50;;;6.40;99.90;;;6.85;100.00;-20868.69;5016585;28;20426;-71
2020/12/19 00:25:19;;;;;;;0.60;0.50;;;6.40;99.90;;;6.85;100.00;-20868.53;5015069;28;20565;-71
2020/12/19 00:27:47;;;;;;;3.83;1.17;;;6.30;99.90;;;6.94;100.00;-20871.19;5013056;28;20446;-71
2020/12/19 00:30:14;;;;;;;0.60;0.60;;;6.40;99.90;;;6.96;100.00;-20871.59;5016037;28;20430;-71
2020/12/19 00:32:41;;;;;;;0.60;0.60;;;6.50;99.90;;;6.84;100.00;-20868.28;5014989;28;20436;-71
2020/12/19 00:35:09;;;;;;;0.60;0.50;;;6.30;99.90;;;6.92;100.00;-20870.50;5013385;28;20958;-71
2020/12/19 00:37:41;;;;;;;0.60;0.50;;;6.40;99.90;;;6.95;100.00;-20871.31;5009258;28;20437;-73
2020/12/19 00:40:08;;;;;;;0.60;0.57;;;6.50;99.90;;;6.93;100.00;-20870.78;5012731;28;20480;-71
2020/12/19 00:42:37;;;;;;;0.60;0.50;;;6.40;99.90;;;6.96;100.00;-20871.59;5014798;28;20870;-72
2020/12/19 00:45:07;;;;;;;0.70;0.60;;;6.40;99.90;;;7.02;100.00;-20873.28;5015224;28;20489;-71
2020/12/19 00:47:36;;;;;;;0.60;0.50;;;6.50;99.90;;;7.09;100.00;-20875.22;5015766;28;20434;-71
2020/12/19 00:50:06;;;;;;;0.60;0.50;;;6.50;99.90;;;7.12;100.00;-20876.06;5015758;28;20449;-71
2020/12/19 00:52:33;;;;;;;0.60;0.60;;;6.60;99.90;;;7.24;100.00;-20879.38;5016066;28;20425;-71
2020/12/19 00:55:01;;;;;;;0.60;0.60;;;6.70;99.90;;;7.25;100.00;-20879.53;5015168;28;20442;-71
2020/12/19 00:57:32;;;;;;;0.60;0.50;;;6.70;99.90;;;7.21;100.00;-20878.53;5014350;28;20521;-71
2020/12/19 01:00:03;;;;;;;0.60;0.60;;;6.70;99.90;;;7.32;100.00;-20881.31;5012291;28;20433;-71
2020/12/19 01:02:34;;;;;;;0.60;0.50;;;6.70;99.90;;;7.39;100.00;-20883.28;5015333;28;20525;-72
2020/12/19 01:05:12;;;;;;;0.60;0.50;;;6.80;99.90;;;7.46;100.00;-20885.34;5015358;28;21395;-71
2020/12/19 01:07:41;;;;;;;0.60;0.50;;;6.80;99.90;;;7.42;100.00;-20884.09;5015645;28;20417;-71
2020/12/19 01:10:09;;;;;;;0.60;0.60;;;6.90;99.90;;;7.28;100.00;-20880.34;5011347;28;20792;-71
2020/12/19 01:12:37;;;;;;;0.60;0.50;;;6.80;99.90;;;7.28;100.00;-20880.22;5015172;28;20919;-71
2020/12/19 01:15:06;;;;;;;0.60;0.50;;;6.70;99.90;;;7.26;100.00;-20879.94;5015096;28;20418;-71
2020/12/19 01:17:34;;;;;;;0.60;0.57;;;6.70;99.90;;;7.20;100.00;-20878.13;5015279;28;20788;-71
2020/12/19 01:20:01;;;;;;;0.60;0.50;;;6.60;99.90;;;7.05;100.00;-20874.09;5015047;28;20961;-71
2020/12/19 01:22:28;;;;;;;0.60;0.53;;;6.60;99.90;;;6.98;100.00;-20872.16;5013609;28;20442;-71
2020/12/19 01:24:56;;;;;;;0.60;0.50;;;6.50;99.90;;;7.08;100.00;-20874.81;5030040;28;20462;-71
2020/12/19 01:27:23;;;;;;;0.70;0.60;;;6.60;99.90;;;7.02;100.00;-20873.28;5015246;28;20491;-71
2020/12/19 01:29:50;;;;;;;0.60;0.60;;;6.60;99.90;;;7.05;100.00;-20874.09;5014748;28;20434;-72
2020/12/19 01:32:18;;;;;;;0.70;0.70;;;6.60;99.90;;;6.91;100.00;-20870.22;5029686;28;20524;-71
2020/12/19 01:34:45;;;;;;;0.60;0.60;;;6.50;99.90;;;6.98;100.00;-20872.16;5015022;28;20461;-71
2020/12/19 01:37:12;;;;;;;0.60;0.50;;;6.50;99.90;;;6.85;100.00;-20868.69;5014407;28;20445;-71
2020/12/19 01:39:39;;;;;;;1.00;0.87;;;6.40;99.90;;;6.98;100.00;-20872.16;5014626;28;20441;-71
2020/12/19 01:42:06;;;;;;;0.60;0.60;;;6.50;99.90;;;6.89;100.00;-20869.66;5014388;28;20445;-71
2020/12/19 01:44:33;;;;;;;0.60;0.50;;;6.40;99.90;;;6.95;100.00;-20871.31;5014628;28;20819;-71
2020/12/19 01:47:02;;;;;;;0.60;0.50;;;6.40;99.90;;;6.95;100.00;-20871.31;5029597;28;20446;-71
2020/12/19 01:49:32;;;;;;;0.60;0.50;;;6.50;99.90;;;7.04;100.00;-20873.69;5015119;28;20848;-71
2020/12/19 01:52:05;;;;;;;0.60;0.50;;;6.50;99.90;;;7.11;100.00;-20875.78;5013581;28;20484;-71
2020/12/19 01:54:33;;;;;;;0.60;0.50;;;6.60;99.90;;;7.39;100.00;-20883.28;5014143;28;20437;-71
2020/12/19 01:57:01;;;;;;;0.60;0.50;;;6.70;99.90;;;7.60;100.00;-20888.97;5014546;28;20816;-71
2020/12/19 01:59:32;;;;;;;0.60;0.60;;;6.90;99.90;;;7.65;100.00;-20890.50;5014846;28;20430;-70
2020/12/19 02:02:06;;;;;;;0.60;0.50;;;7.00;99.90;;;7.73;100.00;-20892.72;5014071;28;21228;-71
2020/12/19 02:04:34;;;;;;;0.60;0.60;;;7.10;99.90;;;7.61;100.00;-20889.38;5014446;28;20450;-71
2020/12/19 02:07:05;;;;;;;0.60;0.60;;;7.00;99.90;;;7.57;100.00;-20888.28;5013844;28;20457;-71
2020/12/19 02:09:37;;;;;;;2.60;1.03;;;7.00;99.90;;;7.51;100.00;-20886.59;5011996;28;20465;-72
2020/12/19 02:12:05;;;;;;;0.60;0.60;;;7.00;99.90;;;7.48;100.00;-20885.78;5013949;28;20535;-71
2020/12/19 02:14:33;;;;;;;0.60;0.60;;;6.90;99.90;;;7.36;100.00;-20882.44;5014420;28;20418;-71
2020/12/19 02:17:02;;;;;;;0.60;0.50;;;6.80;99.90;;;7.43;100.00;-20884.38;5012573;28;20464;-72
2020/12/19 02:19:32;;;;;;;0.60;0.60;;;6.90;99.90;;;7.47;100.00;-20885.50;5004919;28;20466;-73
2020/12/19 02:22:04;;;;;;;0.70;0.70;;;6.90;99.90;;;7.44;100.00;-20884.66;5012873;28;20453;-73
2020/12/19 02:24:33;;;;;;;0.60;0.50;;;6.90;99.90;;;7.44;100.00;-20884.66;5013974;28;20448;-73
2020/12/19 02:27:02;;;;;;;0.60;0.60;;;6.90;99.90;;;7.43;100.00;-20884.38;5013683;28;20462;-73
2020/12/19 02:29:33;;;;;;;0.60;0.50;;;6.90;99.90;;;7.46;100.00;-20885.22;5014597;28;20534;-73
2020/12/19 02:32:02;;;;;;;0.60;0.50;;;7.00;99.90;;;7.44;100.00;-20884.81;5012146;28;20429;-71
2020/12/19 02:34:30;;;;;;;0.60;0.57;;;7.00;99.90;;;7.48;100.00;-20885.78;5014137;28;20829;-72
2020/12/19 02:36:57;;;;;;;0.60;0.50;;;7.00;99.90;;;7.45;100.00;-20884.94;5013974;28;20949;-72
2020/12/19 02:39:24;;;;;;;0.60;0.50;;;7.00;99.90;;;7.43;100.00;-20884.53;5004145;28;20781;-71
2020/12/19 02:41:52;;;;;;;0.60;0.60;;;6.90;99.90;;;7.64;100.00;-20890.22;5011979;28;20445;-72
2020/12/19 02:44:20;;;;;;;1.33;1.23;;;7.10;99.90;;;7.53;100.00;-20887.16;5011276;28;20480;-71
2020/12/19 02:46:48;;;;;;;0.60;0.60;;;7.00;99.90;;;7.55;100.00;-20887.72;5012286;28;20469;-72
2020/12/19 02:49:16;;;;;;;0.60;0.57;;;7.10;99.90;;;7.53;100.00;-20887.03;5013238;28;20461;-71
2020/12/19 02:51:43;;;;;;;0.60;0.50;;;7.00;99.90;;;7.50;100.00;-20886.31;4996155;28;20427;-71
2020/12/19 02:54:10;;;;;;;0.60;0.50;;;7.00;99.90;;;7.46;100.00;-20885.34;5012798;28;20551;-72
2020/12/19 02:56:37;;;;;;;0.60;0.50;;;7.00;99.90;;;7.50;100.00;-20886.47;5013715;28;20525;-72
2020/12/19 02:59:05;;;;;;;0.60;0.50;;;7.00;99.90;;;7.44;100.00;-20884.81;5012127;28;20453;-72
2020/12/19 03:01:33;;;;;;;0.60;0.60;;;7.00;99.90;;;7.47;100.00;-20885.50;5013295;28;20430;-71
2020/12/19 03:04:00;;;;;;;0.60;0.50;;;7.00;99.90;;;7.44;100.00;-20884.66;5015583;28;20544;-71
2020/12/19 03:06:32;;;;;;;1.33;0.70;;;7.00;99.90;;;7.41;100.00;-20883.81;5020265;28;21004;-72
2020/12/19 03:08:59;;;;;;;0.60;0.50;;;7.00;99.90;;;7.32;100.00;-20881.31;5018913;28;20449;-72
2020/12/19 03:11:26;;;;;;;0.63;0.60;;;6.90;99.90;;;7.31;100.00;-20881.06;5020202;28;20446;-71
2020/12/19 03:13:53;;;;;;;0.60;0.50;;;6.90;99.90;;;7.35;100.00;-20882.16;5017628;28;20496;-72
2020/12/19 03:16:21;;;;;;;0.60;0.60;;;6.90;99.90;;;7.37;100.00;-20882.84;5002806;28;20457;-72
2020/12/19 03:18:49;;;;;;;0.60;0.60;;;6.90;99.90;;;7.33;100.00;-20881.59;5018993;28;20473;-72
2020/12/19 03:21:17;;;;;;;0.60;0.60;;;6.80;99.90;;;7.17;100.00;-20877.28;5020077;28;20456;-72
2020/12/19 03:23:44;;;;;;;0.60;0.50;;;6.70;99.90;;;7.10;100.00;-20875.50;5020029;28;20430;-70
2020/12/19 03:26:11;;;;;;;0.60;0.50;;;6.70;99.90;;;7.16;100.00;-20877.16;5019561;28;20457;-72
2020/12/19 03:28:38;;;;;;;0.63;0.60;;;6.70;99.90;;;7.14;100.00;-20876.59;5020235;28;20567;-73
2020/12/19 03:31:05;;;;;;;0.60;0.50;;;6.70;99.90;;;7.10;100.00;-20875.34;5019863;28;20438;-74
2020/12/19 03:33:32;;;;;;;0.60;0.50;;;6.60;99.90;;;7.07;100.00;-20874.53;5019811;28;20521;-71
2020/12/19 03:36:00;;;;;;;0.60;0.50;;;6.60;99.90;;;6.96;100.00;-20871.75;5019767;28;20410;-71
2020/12/19 03:38:27;;;;;;;0.60;0.50;;;6.50;99.90;;;6.99;100.00;-20872.44;5019861;28;20429;-72
2020/12/19 03:40:54;;;;;;;0.60;0.57;;;6.60;99.90;;;7.02;100.00;-20873.28;5018939;28;20523;-71
2020/12/19 03:43:21;;;;;;;0.60;0.50;;;6.60;99.90;;;7.07;100.00;-20874.66;5020171;28;20467;-71
2020/12/19 03:45:47;;;;;;;0.60;0.50;;;6.60;99.90;;;7.05;100.00;-20873.97;5019067;28;20826;-71
2020/12/19 03:48:14;;;;;;;0.70;0.70;;;6.60;99.90;;;6.94;100.00;-20871.19;5019972;28;20570;-71
2020/12/19 03:50:42;;;;;;;0.60;0.50;;;6.50;99.90;;;6.97;100.00;-20871.88;5019540;28;21003;-71
2020/12/19 03:53:09;;;;;;;0.60;0.50;;;6.50;99.90;;;6.97;100.00;-20872.03;5019573;28;20436;-72
2020/12/19 03:55:36;;;;;;;0.60;0.60;;;6.50;99.90;;;6.85;100.00;-20868.53;5019247;28;20464;-71
2020/12/19 03:58:03;;;;;;;0.60;0.60;;;6.40;99.90;;;6.84;100.00;-20868.28;5019485;28;20465;-72
2020/12/19 04:00:30;;;;;;;0.80;0.80;;;6.40;99.90;;;6.76;100.00;-20866.31;5019725;28;20774;-72
2020/12/19 04:02:56;;;;;;;0.60;0.50;;;6.30;99.90;;;6.73;100.00;-20865.50;5019209;28;20441;-74
2020/12/19 04:05:23;;;;;;;1.00;0.70;;;6.30;99.90;;;6.76;100.00;-20866.31;5019480;28;20507;-71
2020/12/19 04:07:51;;;;;;;0.60;0.53;;;6.30;99.90;;;6.85;100.00;-20868.53;5019643;28;20428;-72
2020/12/19 04:10:18;;;;;;;0.70;0.60;;;6.40;99.90;;;6.83;100.00;-20868.00;5019327;28;20845;-72
2020/12/19 04:12:45;;;;;;;1.53;0.80;;;6.30;99.90;;;6.81;100.00;-20867.56;5018906;28;20484;-72
2020/12/19 04:15:12;;;;;;;1.10;1.10;;;6.40;99.90;;;6.82;100.00;-20867.84;5016500;28;21167;-71
2020/12/19 04:17:39;;;;;;;0.60;0.50;;;6.40;99.90;;;6.80;100.00;-20867.16;5015658;28;20856;-72
2020/12/19 04:20:09;;;;;;;0.60;0.50;;;6.30;99.90;;;6.74;100.00;-20865.63;5015934;28;20449;-72
2020/12/19 04:22:36;;;;;;;0.60;0.50;;;6.30;99.90;;;6.69;100.00;-20864.25;5016268;28;20492;-72
2020/12/19 04:25:04;;;;;;;0.60;0.60;;;6.30;99.90;;;6.70;100.00;-20864.50;5027907;28;20450;-71
2020/12/19 04:27:31;;;;;;;0.60;0.60;;;6.30;99.90;;;6.59;100.00;-20861.59;5013738;28;20453;-73
2020/12/19 04:29:58;;;;;;;0.60;0.60;;;6.20;99.90;;;6.56;100.00;-20860.63;5015005;28;21014;-72
2020/12/19 04:32:24;;;;;;;0.60;0.60;;;6.10;99.90;;;6.52;100.00;-20859.78;5001110;28;20442;-73
2020/12/19 04:34:51;;;;;;;0.60;0.57;;;6.10;99.90;;;6.57;100.00;-20861.03;4996563;28;20854;-72
2020/12/19 04:37:23;;;;;;;0.60;0.60;;;6.20;99.90;;;6.63;100.00;-20862.72;4996478;28;20411;-72
2020/12/19 04:39:51;;;;;;;0.60;0.60;;;6.20;99.90;;;6.66;100.00;-20863.53;4994409;28;20465;-73
2020/12/19 04:42:20;;;;;;;0.60;0.60;;;6.20;99.90;;;6.61;100.00;-20862.00;5016099;28;20940;-73
2020/12/19 04:44:47;;;;;;;0.60;0.60;;;6.20;99.90;;;6.59;100.00;-20861.59;5012798;28;20422;-73
2020/12/19 04:47:15;;;;;;;0.60;0.53;;;6.20;99.90;;;6.65;100.00;-20863.25;5015168;28;20460;-73
2020/12/19 04:49:44;;;;;;;0.80;0.80;;;6.30;99.90;;;6.62;100.00;-20862.44;5015437;28;20628;-73
2020/12/19 04:52:12;;;;;;;0.60;0.50;;;6.20;99.90;;;6.69;100.00;-20864.38;5016179;28;20430;-73
2020/12/19 04:54:39;;;;;;;0.60;0.60;;;6.20;99.90;;;6.74;100.00;-20865.78;5015494;28;20442;-73
2020/12/19 04:57:15;;;;;;;0.60;0.60;;;6.30;99.90;;;6.69;100.00;-20864.38;5016033;28;20772;-73
2020/12/19 04:59:43;;;;;;;0.70;0.60;;;6.20;99.90;;;6.62;100.00;-20862.44;5015339;28;20491;-73
2020/12/19 05:02:10;;;;;;;0.60;0.50;;;6.20;99.90;;;6.57;100.00;-20861.03;5015303;28;20488;-74
2020/12/19 05:04:37;;;;;;;0.80;0.77;;;6.10;99.90;;;6.53;100.00;-20860.06;5013694;28;20501;-71
2020/12/19 05:07:08;;;;;;;0.60;0.50;;;6.10;99.90;;;6.51;100.00;-20859.38;5015320;28;20563;-72
2020/12/19 05:09:38;;;;;;;0.60;0.50;;;6.10;99.90;;;6.50;100.00;-20859.25;5011233;28;20454;-71
2020/12/19 05:12:06;;;;;;;0.67;0.60;;;6.10;99.90;;;6.47;100.00;-20858.25;5014906;28;20445;-73
2020/12/19 05:14:34;;;;;;;1.47;1.37;;;6.00;99.90;;;6.44;100.00;-20857.44;5015439;28;20469;-72
2020/12/19 05:17:02;;;;;;;0.60;0.57;;;6.00;99.90;;;6.42;100.00;-20856.88;5012623;28;20499;-72
2020/12/19 05:19:32;;;;;;;0.60;0.53;;;6.00;99.90;;;6.57;100.00;-20860.91;5012882;28;20465;-72
2020/12/19 05:21:59;;;;;;;0.60;0.53;;;6.10;99.90;;;6.57;100.00;-20861.03;5015008;28;20997;-72
2020/12/19 05:24:32;;;;;;;0.60;0.50;;;6.10;99.90;;;6.49;100.00;-20858.97;5014653;28;20452;-72
2020/12/19 05:26:59;;;;;;;0.60;0.60;;;6.00;99.90;;;6.46;100.00;-20858.13;5014814;28;20458;-74
2020/12/19 05:29:26;;;;;;;0.60;0.50;;;6.00;99.90;;;6.56;100.00;-20860.78;5015111;28;20919;-73
2020/12/19 05:31:56;;;;;;;0.60;0.50;;;6.10;99.90;;;6.67;100.00;-20863.81;5014667;28;20910;-73
2020/12/19 05:34:25;;;;;;;0.60;0.60;;;6.20;99.90;;;6.56;100.00;-20860.78;5014714;28;20441;-73
2020/12/19 05:36:54;;;;;;;0.60;0.60;;;6.10;99.90;;;6.61;100.00;-20862.16;5013986;28;20415;-73
2020/12/19 05:39:21;;;;;;;0.60;0.60;;;6.10;99.90;;;6.66;100.00;-20863.53;5014157;28;20473;-73
2020/12/19 05:41:49;;;;;;;0.60;0.60;;;6.20;99.90;;;6.67;100.00;-20863.81;5014351;28;20877;-73
2020/12/19 05:44:20;;;;;;;0.60;0.60;;;6.20;99.90;;;6.68;100.00;-20864.09;5014747;28;20485;-73
2020/12/19 05:46:47;;;;;;;0.60;0.60;;;6.30;99.90;;;6.77;100.00;-20866.47;5014151;28;20508;-73
2020/12/19 05:49:16;;;;;;;0.90;0.67;;;6.30;99.90;;;6.81;100.00;-20867.56;5029497;28;20493;-74
2020/12/19 05:51:45;;;;;;;0.60;0.60;;;6.40;99.90;;;6.84;100.00;-20868.28;5014600;28;20472;-73
2020/12/19 05:54:14;;;;;;;0.60;0.60;;;6.40;99.90;;;6.92;100.00;-20870.50;5014207;28;20530;-73
2020/12/19 05:56:43;;;;;;;2.50;2.40;;;6.40;99.90;;;6.96;100.00;-20871.59;5014511;28;20786;-74
2020/12/19 05:59:13;;;;;;;0.60;0.53;;;6.50;99.90;;;6.92;100.00;-20870.50;5014444;28;20511;-73
2020/12/19 06:01:42;;;;;;;0.60;0.60;;;6.40;99.90;;;6.90;100.00;-20869.94;5013991;28;20536;-73
2020/12/19 06:04:13;;;;;;;0.60;0.60;;;6.40;99.90;;;6.82;100.00;-20867.72;5013982;28;20831;-73
2020/12/19 06:06:41;;;;;;;0.60;0.50;;;6.40;99.90;;;6.86;100.00;-20868.81;5014151;28;20524;-73
2020/12/19 06:09:11;;;;;;;1.10;1.10;;;6.40;99.90;;;6.93;100.00;-20870.91;5012265;28;20863;-73
2020/12/19 06:11:49;;;;;;;0.60;0.60;;;6.50;99.90;;;7.01;100.00;-20873.00;5014017;28;20872;-73
2020/12/19 06:14:20;;;;;;;0.60;0.50;;;6.50;99.90;;;6.92;100.00;-20870.50;5013083;28;20410;-73
2020/12/19 06:16:50;;;;;;;0.60;0.60;;;6.40;99.90;;;7.04;100.00;-20873.81;5009049;28;20922;-73
2020/12/19 06:19:21;;;;;;;4.73;2.33;;;6.50;99.90;;;7.13;100.00;-20876.19;5013161;28;20458;-73
2020/12/19 06:21:50;;;;;;;0.60;0.50;;;6.60;99.90;;;7.15;100.00;-20876.88;5010508;28;20449;-73
2020/12/19 06:24:43;;;;;;;0.60;0.50;;;6.70;99.90;;;7.25;100.00;-20879.66;5013249;28;20497;-74
2020/12/19 06:27:41;;;;;;;0.60;0.50;;;6.80;99.90;;;7.34;100.00;-20881.88;5007276;28;20459;-72
2020/12/19 06:30:27;;;;;;;0.60;0.50;;;6.90;99.90;;;7.45;100.00;-20885.06;5006265;28;20810;-73
2020/12/19 06:33:14;;;;;;;0.60;0.60;;;7.00;99.90;;;7.50;100.00;-20886.31;5011666;28;20528;-73
2020/12/19 06:35:50;;;;;;;0.60;0.60;;;7.10;99.90;;;7.57;100.00;-20888.28;5003074;28;20442;-74
2020/12/19 06:38:39;;;;;;;0.93;0.93;;;7.10;99.90;;;7.46;100.00;-20885.22;5008697;28;20524;-73
2020/12/19 06:41:08;;;;;;;0.60;0.60;;;7.10;99.90;;;7.50;100.00;-20886.47;5009421;28;20469;-73
2020/12/19 06:43:35;;;;;;;0.90;0.90;;;7.10;99.90;;;7.53;100.00;-20887.16;5005974;28;20431;-73
2020/12/19 06:46:02;;;;;;;0.60;0.60;;;7.10;99.90;;;7.52;100.00;-20886.88;5013228;28;20469;-73
2020/12/19 06:48:32;;;;;;;0.80;0.80;;;7.10;99.90;;;7.48;100.00;-20885.78;5014302;28;20902;-74
2020/12/19 06:51:02;;;;;;;0.60;0.50;;;7.10;99.90;;;7.50;100.00;-20886.31;5029016;28;20421;-73
2020/12/19 06:53:31;;;;;;;0.60;0.60;;;7.10;99.90;;;7.49;100.00;-20886.03;5013842;28;20864;-73
2020/12/19 06:55:59;;;;;;;0.70;0.70;;;7.10;99.90;;;7.46;100.00;-20885.22;5013359;28;20834;-73
2020/12/19 06:58:32;;;;;;;0.60;0.60;;;7.10;99.90;;;7.57;100.00;-20888.28;5013789;28;20433;-73
2020/12/19 07:01:01;;;;;;;0.60;0.60;;;7.10;99.90;;;7.57;100.00;-20888.13;5013379;28;20422;-73
2020/12/19 07:03:40;;;;;;;0.60;0.50;;;7.10;99.90;;;7.48;100.00;-20885.78;5013617;28;20544;-73
2020/12/19 07:06:14;;;;;;;1.27;1.17;;;7.00;99.90;;;7.57;100.00;-20888.28;5013210;28;20550;-73
2020/12/19 07:08:51;;;;;;;0.60;0.60;;;7.10;99.90;;;7.52;100.00;-20886.88;5012270;28;20445;-73
2020/12/19 07:11:41;;;;;;;0.60;0.50;;;7.10;99.90;;;7.61;100.00;-20889.25;5005488;28;20602;-73
2020/12/19 07:14:15;;;;;;;0.60;0.60;;;7.10;99.90;;;7.55;100.00;-20887.72;5013656;28;20518;-74
2020/12/19 07:16:45;;;;;;;0.60;0.50;;;7.10;99.90;;;7.55;100.00;-20887.56;5013418;28;20464;-71
2020/12/19 07:19:27;;;;;;;0.60;0.57;;;7.10;99.90;;;7.56;100.00;-20888.00;5011898;28;20457;-73
2020/12/19 07:21:55;;;;;;;0.60;0.50;;;7.10;99.90;;;7.54;100.00;-20887.44;5024202;28;20474;-73
2020/12/19 07:24:24;;;;;;;1.00;0.87;;;7.10;99.90;;;7.58;100.00;-20888.53;5005991;28;20504;-73
2020/12/19 07:26:52;;;;;;;1.37;1.27;;;7.10;99.90;;;7.64;100.00;-20890.22;5008383;28;20493;-73
2020/12/19 07:29:22;;;;;;;0.60;0.53;;;7.10;99.90;;;7.69;100.00;-20891.59;5011297;28;20493;-73
2020/12/19 07:31:52;;;;;;;0.60;0.50;;;7.20;99.90;;;7.78;100.00;-20893.81;4999920;28;20474;-74
2020/12/19 07:34:20;;;;;;;0.60;0.50;;;7.30;99.90;;;7.76;100.00;-20893.41;5000003;28;20493;-72
2020/12/19 07:36:51;;;;;;;0.60;0.53;;;7.30;99.90;;;7.84;100.00;-20895.47;5011968;28;20426;-73
2020/12/19 07:39:20;;;;;;;0.60;0.60;;;7.40;99.90;;;7.99;100.00;-20899.66;5005052;28;20456;-74
2020/12/19 07:42:01;;;;;;;1.20;1.10;;;7.50;99.90;;;8.03;100.00;-20900.75;5004817;28;20451;-73
2020/12/19 07:44:30;;;;;;;0.60;0.60;;;7.50;99.90;;;8.01;100.00;-20900.19;5013270;28;20468;-74
2020/12/19 07:47:00;;;;;;;0.60;0.50;;;7.50;99.90;;;8.01;100.00;-20900.19;5011497;28;20488;-73
2020/12/19 07:49:37;;;;;;;0.60;0.50;;;7.50;99.90;;;8.01;100.00;-20900.19;5010699;28;20461;-73
2020/12/19 07:52:10;;;;;;;1.30;1.20;;;7.50;99.90;;;7.81;100.00;-20894.66;5014308;28;20466;-73
2020/12/19 07:54:38;;;;;;;0.60;0.50;;;7.40;99.90;;;7.90;100.00;-20897.16;5005471;28;20461;-74
2020/12/19 07:57:11;;;;;;;0.60;0.50;;;7.40;99.90;;;7.91;100.00;-20897.56;5007637;28;20543;-74
2020/12/19 07:59:40;;;;;;;0.60;0.60;;;7.40;99.90;;;7.90;100.00;-20897.16;5007270;28;20854;-72
2020/12/19 08:02:09;;;;;;;1.00;1.00;;;7.40;99.90;;;7.87;100.00;-20896.31;4997091;28;20417;-73
2020/12/19 08:04:36;;;;;;;0.60;0.50;;;7.40;99.90;;;7.94;100.00;-20898.41;4997067;28;20544;-72
2020/12/19 08:07:03;;;;;;;0.60;0.50;;;7.40;99.90;;;7.98;100.00;-20899.38;5030629;28;20864;-73
2020/12/19 08:09:37;;;;;;;0.60;0.50;;;7.40;99.90;;;7.92;100.00;-20897.72;5016691;28;20497;-73
2020/12/19 08:12:04;;;;;;;0.60;0.50;;;7.40;99.90;;;7.84;100.00;-20895.47;5015941;28;20442;-72
2020/12/19 08:14:33;;;;;;;0.60;0.60;;;7.30;99.90;;;7.89;100.00;-20896.88;5016209;28;20483;-72
2020/12/19 08:17:02;;;;;;;0.60;0.50;;;7.30;99.90;;;7.99;100.00;-20899.78;5011725;28;20540;-72
2020/12/19 08:19:35;;;;;;;0.60;0.50;;;7.40;99.90;;;7.94;100.00;-20898.25;5007912;28;20540;-72
2020/12/19 08:22:04;;;;;;;0.60;0.60;;;7.40;99.90;;;7.88;100.00;-20896.59;5008758;28;20502;-72
2020/12/19 08:24:31;;;;;;;0.60;0.50;;;7.40;99.90;;;7.87;100.00;-20896.31;5013731;28;20856;-72
2020/12/19 08:27:40;;;;;;;0.60;0.60;;;7.40;99.90;;;7.96;100.00;-20898.81;5015390;28;20949;-72
2020/12/19 08:30:10;;;;;;;0.60;0.50;;;7.40;99.90;;;7.85;100.00;-20895.91;5011579;28;20537;-71
2020/12/19 08:32:43;;;;;;;0.60;0.50;;;7.40;99.90;;;7.97;100.00;-20899.22;5010994;28;20470;-71
2020/12/19 08:35:16;;;;;;;0.60;0.50;;;7.40;99.90;;;7.98;100.00;-20899.38;5009938;28;20521;-72
2020/12/19 08:37:44;;;;;;;0.60;0.50;;;7.50;99.90;;;8.02;100.00;-20900.47;5010905;28;20428;-72
2020/12/19 08:40:15;;;;;;;0.60;0.50;;;7.60;99.90;;;8.07;100.00;-20901.88;5006618;28;20448;-72
2020/12/19 08:42:45;;;;;;;0.60;0.57;;;7.60;99.90;;;8.10;100.00;-20902.56;5007153;28;20483;-72
2020/12/19 08:45:31;;;;;;;0.60;0.50;;;7.60;99.90;;;8.18;100.00;-20904.91;5011528;28;20916;-71
2020/12/19 08:48:05;;;;;;;0.70;0.60;;;7.60;99.90;;;8.18;100.00;-20904.91;5012622;28;20835;-72
2020/12/19 08:50:42;;;;;;;0.60;0.60;;;7.60;99.90;;;8.15;100.00;-20903.94;5009164;28;20429;-71
2020/12/19 08:53:17;;;;;;;0.60;0.60;;;7.60;99.90;;;8.28;100.00;-20907.41;5014863;28;20467;-72
2020/12/19 08:55:45;;;;;;;0.60;0.50;;;7.70;99.90;;;8.29;100.00;-20907.69;5015333;28;20468;-71
2020/12/19 08:58:28;;;;;;;0.60;0.60;;;7.70;99.90;;;8.50;100.00;-20913.53;5015494;28;20419;-72
2020/12/19 09:00:57;;;;;;;0.60;0.60;;;7.90;99.90;;;8.60;100.00;-20916.28;5012040;28;20472;-74
2020/12/19 09:03:29;;;;;;;1.20;1.10;;;8.00;99.90;;;8.53;100.00;-20914.22;5013415;28;20483;-72
2020/12/19 09:06:02;;;;;;;0.60;0.60;;;8.00;99.90;;;8.62;100.00;-20916.84;5022534;28;20489;-72
2020/12/19 09:08:38;;;;;;;0.60;0.60;;;8.10;99.90;;;8.64;100.00;-20917.28;5014367;28;20469;-71
2020/12/19 09:11:08;;;;;;;0.60;0.60;;;8.10;99.90;;;8.67;100.00;-20918.25;5011499;28;20435;-72
2020/12/19 09:13:36;;;;;;;0.70;0.70;;;8.10;99.90;;;8.71;100.00;-20919.34;5014522;28;20476;-72
2020/12/19 09:16:08;;;;;;;0.60;0.60;;;8.20;99.90;;;8.74;100.00;-20919.91;5013711;28;20430;-72
2020/12/19 09:18:38;;;;;;;0.60;0.60;;;8.20;99.90;;;8.75;100.00;-20920.31;5012796;28;20453;-72
2020/12/19 09:21:07;;;;;;;0.60;0.50;;;8.30;99.90;;;8.84;100.00;-20922.69;5012648;28;20469;-71
2020/12/19 09:23:36;;;;;;;1.10;1.07;;;8.30;99.90;;;8.81;100.00;-20921.97;5010045;28;20430;-71
2020/12/19 09:26:05;;;;;;;0.60;0.50;;;8.30;99.90;;;8.96;100.00;-20926.00;5011422;28;20500;-72
2020/12/19 09:28:33;;;;;;;0.70;0.70;;;8.40;99.90;;;8.95;100.00;-20925.72;5007434;28;20535;-71
2020/12/19 09:31:00;;;;;;;0.60;0.60;;;8.40;99.90;;;9.07;100.00;-20929.06;4998908;28;20464;-72
2020/12/19 09:33:27;;;;;;;0.60;0.60;;;8.50;99.90;;;9.11;100.00;-20930.16;5013385;28;20507;-72
2020/12/19 09:35:55;;;;;;;0.60;0.50;;;8.60;99.90;;;9.08;100.00;-20929.31;5006231;28;20459;-72
2020/12/19 09:38:23;;;;;;;0.60;0.60;;;8.60;99.90;;;9.12;100.00;-20930.44;5014682;28;20530;-72
2020/12/19 09:40:49;;;;;;;0.60;0.50;;;8.60;99.90;;;9.21;100.00;-20932.66;5013753;28;20468;-71
2020/12/19 09:43:17;;;;;;;0.60;0.50;;;8.70;99.90;;;9.33;100.00;-20936.13;5010694;28;20445;-72
2020/12/19 09:45:44;;;;;;;0.60;0.50;;;8.80;99.90;;;9.40;100.00;-20938.06;5004444;28;20440;-72
2020/12/19 09:48:12;;;;;;;0.60;0.60;;;8.90;99.90;;;9.50;100.00;-20940.69;5009932;28;20764;-73
2020/12/19 09:50:39;;;;;;;0.60;0.60;;;9.00;99.90;;;9.48;100.00;-20940.13;5001645;28;20433;-72
2020/12/19 09:53:07;;;;;;;0.60;0.60;;;9.00;99.90;;;9.67;100.00;-20945.41;5019518;28;20490;-72
2020/12/19 09:55:34;;;;;;;0.60;0.60;;;9.10;99.90;;;9.75;100.00;-20947.47;5000586;28;20448;-72
2020/12/19 09:58:01;;;;;;;0.60;0.60;;;9.20;99.90;;;9.74;100.00;-20947.06;5019279;28;20446;-72
2020/12/19 10:00:28;;;;;;;0.80;0.80;;;9.20;99.90;;;9.92;100.00;-20952.03;4997731;28;20438;-72
2020/12/19 10:02:56;;;;;;;0.60;0.50;;;9.30;99.90;;;9.87;100.00;-20950.66;5018253;28;20459;-72
2020/12/19 10:05:23;;;;;;;0.60;0.60;;;9.40;99.90;;;9.95;100.00;-20952.88;5012244;28;20448;-72
2020/12/19 10:07:50;;;;;;;0.70;0.60;;;9.50;99.90;;;10.20;100.00;-20959.50;5009113;28;20953;-72
2020/12/19 10:10:18;;;;;;;0.70;0.60;;;9.60;99.90;;;10.09;100.00;-20956.63;5011185;28;20500;-72
2020/12/19 10:12:45;;;;;;;0.60;0.50;;;9.60;99.90;;;10.16;100.00;-20958.69;5013396;28;20451;-72
2020/12/19 10:15:12;;;;;;;0.60;0.53;;;9.70;99.90;;;10.21;100.00;-20959.94;5011432;28;20437;-72
2020/12/19 10:17:39;;;;;;;0.70;0.60;;;9.70;99.90;;;10.20;100.00;-20959.50;4996078;28;20444;-72
2020/12/19 10:20:06;;;;;;;0.60;0.60;;;9.70;99.90;;;10.32;100.00;-20962.84;5002484;28;20463;-72
2020/12/19 10:22:33;;;;;;;1.33;0.80;;;9.80;99.90;;;10.30;100.00;-20962.28;5001886;28;20543;-72
2020/12/19 10:25:01;;;;;;;0.60;0.57;;;9.90;99.90;;;10.38;100.00;-20964.50;5008775;28;20448;-72
2020/12/19 10:27:29;;;;;;;0.70;0.67;;;9.90;99.90;;;10.36;100.00;-20963.94;5009303;28;20473;-72